Terminal Aerodrome Forecast
Issued by NWS Austin/San Antonio, TX

Home | Current Version | Previous Version | Text Only | Print | Product List | Glossary On
Versions: 1 2 3 4 5 6 7 8 9 10 11 12 13 14
000
FTUS44 KEWX 291743
TAFSAT
TAF
KSAT 291743Z 2918/3024 18013G23KT P6SM SKC
     FM300000 16012KT P6SM SKC
     FM300500 17009KT P6SM OVC015
     FM300900 16007KT 4SM BR OVC007
     FM301500 18012KT P6SM OVC015
     FM301900 17008KT P6SM BKN035=

USA.gov is the U.S. government's official web portal to all federal, state and local government web resources and services.